createdAt,value
2023-02-02T00:00:59.693Z,101365.91
2023-02-02T00:03:26.596Z,101371.72
2023-02-02T00:05:54.300Z,101367.59
2023-02-02T00:08:22.510Z,101372.31
2023-02-02T00:10:50.668Z,101370.44
2023-02-02T00:13:17.941Z,101378.22
2023-02-02T00:15:44.601Z,101360.56
2023-02-02T00:18:11.279Z,101358.91
2023-02-02T00:20:38.163Z,101365.03
2023-02-02T00:23:05.301Z,101361.75
2023-02-02T00:25:32.656Z,101362.03
2023-02-02T00:27:59.431Z,101364.00
2023-02-02T00:30:26.240Z,101359.03
2023-02-02T00:32:53.216Z,101365.19
2023-02-02T00:35:20.598Z,101367.47
2023-02-02T00:37:47.317Z,101363.88
2023-02-02T00:40:14.052Z,101366.94
2023-02-02T00:42:40.874Z,101366.44
2023-02-02T00:45:17.015Z,101371.41
2023-02-02T00:47:49.547Z,101369.78
2023-02-02T00:50:20.143Z,101365.66
2023-02-02T00:52:48.566Z,101371.22
2023-02-02T00:55:16.537Z,101362.66
2023-02-02T00:57:44.379Z,101364.88
2023-02-02T01:00:16.305Z,101369.91
2023-02-02T01:02:43.913Z,101358.28
2023-02-02T01:05:12.025Z,101360.22
2023-02-02T01:07:39.208Z,101379.06
2023-02-02T01:10:08.802Z,101374.34
2023-02-02T01:12:35.806Z,101376.56
2023-02-02T01:15:03.301Z,101377.16
2023-02-02T01:17:32.566Z,101374.38
2023-02-02T01:19:59.749Z,101377.75
2023-02-02T01:22:26.626Z,101378.88
2023-02-02T01:24:53.244Z,101372.22
2023-02-02T01:27:38.895Z,101376.72
2023-02-02T01:30:06.689Z,101373.94
2023-02-02T01:32:33.238Z,101370.03
2023-02-02T01:35:00.032Z,101380.06
2023-02-02T01:37:26.778Z,101379.22
2023-02-02T01:39:53.511Z,101380.13
2023-02-02T01:42:22.181Z,101375.16
2023-02-02T01:45:07.365Z,101381.28
2023-02-02T01:47:39.668Z,101385.16
2023-02-02T01:50:08.661Z,101386.00
2023-02-02T01:52:36.667Z,101367.19
2023-02-02T01:55:09.992Z,101383.28
2023-02-02T01:57:44.523Z,101380.50
2023-02-02T02:00:14.988Z,101381.63
2023-02-02T02:02:48.909Z,101377.50
2023-02-02T02:05:25.555Z,101382.19
2023-02-02T02:07:56.830Z,101386.91
2023-02-02T02:10:23.870Z,101372.56
2023-02-02T02:12:50.527Z,101371.19
2023-02-02T02:15:36.009Z,101366.75
2023-02-02T02:18:28.399Z,101362.38
2023-02-02T02:21:55.685Z,101360.97
2023-02-02T02:25:05.325Z,101369.28
2023-02-02T02:28:04.134Z,101367.66
2023-02-02T02:31:01.265Z,101366.28
2023-02-02T02:33:43.775Z,101362.69
2023-02-02T02:36:25.184Z,101364.63
2023-02-02T02:39:09.261Z,101369.34
2023-02-02T02:41:42.087Z,101364.63
2023-02-02T02:44:13.062Z,101367.72
2023-02-02T02:46:39.836Z,101371.59
2023-02-02T02:49:09.998Z,101366.03
2023-02-02T02:51:48.667Z,101364.38
2023-02-02T02:54:33.982Z,101362.75
2023-02-02T02:57:05.620Z,101363.88
2023-02-02T03:00:04.954Z,101371.59
2023-02-02T03:02:37.459Z,101358.03
2023-02-02T03:05:28.781Z,101358.59
2023-02-02T03:08:07.619Z,101359.44
2023-02-02T03:10:36.358Z,101361.38
2023-02-02T03:13:08.555Z,101371.63
2023-02-02T03:15:35.255Z,101373.84
2023-02-02T03:18:02.000Z,101377.44
2023-02-02T03:20:28.818Z,101377.19
2023-02-02T03:22:55.412Z,101378.03
2023-02-02T03:25:23.817Z,101392.69
2023-02-02T03:27:51.052Z,101386.63
2023-02-02T03:30:18.672Z,101389.91
2023-02-02T03:32:46.908Z,101393.00
2023-02-02T03:35:13.780Z,101404.84
2023-02-02T03:37:40.666Z,101399.91
2023-02-02T03:40:07.970Z,101399.91
2023-02-02T03:42:34.649Z,101396.03
2023-02-02T03:45:01.277Z,101396.34
2023-02-02T03:47:29.740Z,101390.81
2023-02-02T03:49:56.759Z,101403.81
2023-02-02T03:52:23.880Z,101410.16
2023-02-02T03:54:51.159Z,101397.44
2023-02-02T03:57:18.078Z,101394.94
2023-02-02T03:59:44.928Z,101396.06
2023-02-02T04:02:11.761Z,101399.41
2023-02-02T04:04:38.420Z,101406.63
2023-02-02T04:07:05.168Z,101401.09
2023-02-02T04:09:32.266Z,101397.75
2023-02-02T04:11:59.054Z,101399.41
2023-02-02T04:14:25.657Z,101408.81
2023-02-02T04:16:52.294Z,101400.00
2023-02-02T04:19:19.207Z,101404.69
2023-02-02T04:21:46.075Z,101401.41
2023-02-02T04:24:14.186Z,101406.94
2023-02-02T04:26:41.663Z,101405.28
2023-02-02T04:29:08.905Z,101417.16
2023-02-02T04:31:35.666Z,101421.28
2023-02-02T04:34:02.633Z,101419.41
2023-02-02T04:36:29.326Z,101417.75
2023-02-02T04:38:56.026Z,101406.69
2023-02-02T04:41:23.444Z,101408.91
2023-02-02T04:43:50.195Z,101413.31
2023-02-02T04:46:17.160Z,101419.97
2023-02-02T04:48:44.095Z,101426.59
2023-02-02T04:51:14.136Z,101431.59
2023-02-02T04:53:42.064Z,101425.25
2023-02-02T04:56:18.924Z,101428.31
2023-02-02T04:58:46.232Z,101432.44
2023-02-02T05:01:18.509Z,101439.38
2023-02-02T05:03:45.744Z,101434.66
2023-02-02T05:06:15.806Z,101436.06
2023-02-02T05:08:43.446Z,101443.50
2023-02-02T05:11:12.304Z,101444.91
2023-02-02T05:13:38.957Z,101454.88
2023-02-02T05:16:06.774Z,101460.41
2023-02-02T05:18:33.839Z,101447.63
2023-02-02T05:21:01.779Z,101447.63
2023-02-02T05:23:29.825Z,101444.91
2023-02-02T05:25:56.978Z,101431.09
2023-02-02T05:28:24.039Z,101450.44
2023-02-02T05:30:51.210Z,101445.50
2023-02-02T05:33:19.618Z,101436.41
2023-02-02T05:35:47.755Z,101436.41
2023-02-02T05:38:15.700Z,101422.84
2023-02-02T05:40:42.593Z,101425.59
2023-02-02T05:43:09.415Z,101421.19
2023-02-02T05:45:36.079Z,101425.06
2023-02-02T05:48:02.780Z,101427.28
2023-02-02T05:50:29.514Z,101428.41
2023-02-02T05:53:04.005Z,101423.72
2023-02-02T05:55:30.628Z,101426.22
2023-02-02T05:57:57.210Z,101434.22
2023-02-02T06:00:23.949Z,101435.34
2023-02-02T06:02:50.635Z,101431.75
2023-02-02T06:05:17.362Z,101433.38
2023-02-02T06:07:44.090Z,101436.44
2023-02-02T06:10:11.221Z,101448.91
2023-02-02T06:12:37.995Z,101450.56
2023-02-02T06:15:06.198Z,101455.53
2023-02-02T06:20:23.108Z,101449.16
2023-02-02T06:22:50.119Z,101450.84
2023-02-02T06:25:17.238Z,101457.19
2023-02-02T06:27:46.307Z,101466.31
2023-02-02T06:30:14.224Z,101461.88
2023-02-02T06:32:41.052Z,101460.22
2023-02-02T06:35:08.812Z,101471.59
2023-02-02T06:37:35.643Z,101469.34
2023-02-02T06:40:02.417Z,101478.78
2023-02-02T06:42:29.236Z,101490.09
2023-02-02T06:44:56.042Z,101483.19
2023-02-02T06:47:22.873Z,101470.47
2023-02-02T06:49:49.601Z,101472.72
2023-02-02T06:52:16.456Z,101471.03
2023-02-02T06:54:43.352Z,101484.88
2023-02-02T06:57:11.141Z,101481.00
2023-02-02T06:59:38.352Z,101486.25
2023-02-02T07:02:05.203Z,101487.09
2023-02-02T07:04:31.935Z,101490.16
2023-02-02T07:06:58.748Z,101493.72
2023-02-02T07:09:25.590Z,101488.78
2023-02-02T07:11:52.382Z,101494.31
2023-02-02T07:14:19.062Z,101481.03
2023-02-02T07:16:47.787Z,101476.59
2023-02-02T07:19:14.880Z,101492.09
2023-02-02T07:21:41.843Z,101496.78
2023-02-02T07:24:08.884Z,101488.19
2023-02-02T07:26:36.460Z,101487.88
2023-02-02T07:29:04.733Z,101500.31
2023-02-02T07:31:34.088Z,101494.19
2023-02-02T07:34:02.406Z,101501.91
2023-02-02T07:36:29.301Z,101501.78
2023-02-02T07:38:57.516Z,101501.22
2023-02-02T07:41:25.675Z,101503.16
2023-02-02T07:43:52.571Z,101509.75
2023-02-02T07:46:20.422Z,101511.84
2023-02-02T07:48:47.688Z,101520.19
2023-02-02T07:51:16.941Z,101515.81
2023-02-02T07:53:49.109Z,101507.53
2023-02-02T07:56:21.334Z,101501.75
2023-02-02T07:58:48.708Z,101513.06
2023-02-02T08:01:16.952Z,101500.91
2023-02-02T08:03:44.431Z,101502.59
2023-02-02T08:09:01.175Z,101511.13
2023-02-02T08:11:29.373Z,101501.47
2023-02-02T08:13:59.349Z,101511.13
2023-02-02T08:16:27.810Z,101510.31
2023-02-02T08:18:57.814Z,101516.97
2023-02-02T08:21:25.407Z,101518.06
2023-02-02T08:23:53.707Z,101523.59
2023-02-02T08:26:24.209Z,101522.75
2023-02-02T08:28:57.427Z,101518.63
2023-02-02T08:31:39.529Z,101527.47
2023-02-02T08:34:06.647Z,101539.34
2023-02-02T08:36:38.255Z,101543.22
2023-02-02T08:39:08.418Z,101539.09
2023-02-02T08:41:36.963Z,101544.88
2023-02-02T08:44:10.891Z,101544.06
2023-02-02T08:46:38.526Z,101553.44
2023-02-02T08:49:05.607Z,101555.69
2023-02-02T08:51:32.580Z,101570.03
2023-02-02T08:53:59.420Z,101552.63
2023-02-02T08:56:26.401Z,101544.63
2023-02-02T08:58:56.093Z,101547.09
2023-02-02T09:01:26.045Z,101554.53
2023-02-02T09:03:57.596Z,101567.75
2023-02-02T09:06:44.918Z,101566.59
2023-02-02T09:09:15.831Z,101576.00
2023-02-02T09:11:43.653Z,101579.53
2023-02-02T09:14:13.105Z,101582.13
2023-02-02T09:16:40.581Z,101579.63
2023-02-02T09:19:11.483Z,101592.84
2023-02-02T09:21:38.403Z,101603.28
2023-02-02T09:24:10.771Z,101613.72
2023-02-02T09:26:38.936Z,101617.25
2023-02-02T09:29:08.545Z,101624.97
2023-02-02T09:31:37.730Z,101627.16
2023-02-02T09:34:07.079Z,101625.19
2023-02-02T09:36:34.321Z,101625.34
2023-02-02T09:39:01.825Z,101630.19
2023-02-02T09:42:18.511Z,101636.97
2023-02-02T09:44:46.125Z,101629.69
2023-02-02T09:47:15.748Z,101636.91
2023-02-02T09:49:54.761Z,101655.72
2023-02-02T09:52:39.336Z,101650.97
2023-02-02T09:55:16.035Z,101649.84
2023-02-02T09:57:49.033Z,101653.97
2023-02-02T10:00:32.802Z,101653.41
2023-02-02T10:03:11.274Z,101664.41
2023-02-02T10:05:51.898Z,101666.63
2023-02-02T10:08:34.726Z,101666.41
2023-02-02T10:11:22.009Z,101669.00
2023-02-02T10:13:51.172Z,101668.78
2023-02-02T10:16:22.565Z,101683.38
2023-02-02T10:18:57.816Z,101682.75
2023-02-02T10:21:35.174Z,101689.34
2023-02-02T10:24:03.893Z,101694.31
2023-02-02T10:26:43.875Z,101692.88
2023-02-02T10:29:20.128Z,101698.38
2023-02-02T10:32:01.843Z,101698.81
2023-02-02T10:34:43.892Z,101690.56
2023-02-02T10:37:17.206Z,101702.75
2023-02-02T10:39:55.924Z,101695.47
2023-02-02T10:42:41.799Z,101691.25
2023-02-02T10:45:19.228Z,101684.88
2023-02-02T10:47:46.206Z,101683.78
2023-02-02T10:50:13.123Z,101686.28
2023-02-02T10:52:53.172Z,101684.88
2023-02-02T10:55:20.414Z,101684.28
2023-02-02T10:57:58.348Z,101690.94
2023-02-02T11:00:35.452Z,101690.81
2023-02-02T11:03:05.058Z,101686.91
2023-02-02T11:05:50.740Z,101684.72
2023-02-02T11:08:28.103Z,101680.00
2023-02-02T11:10:57.219Z,101690.50
2023-02-02T11:13:30.661Z,101678.91
2023-02-02T11:16:15.602Z,101682.47
2023-02-02T11:18:46.391Z,101684.44
2023-02-02T11:21:27.042Z,101695.13
2023-02-02T11:24:07.839Z,101696.19
2023-02-02T11:26:46.514Z,101692.84
2023-02-02T11:29:38.117Z,101699.47
2023-02-02T11:32:25.230Z,101689.41
2023-02-02T11:35:07.206Z,101682.22
2023-02-02T11:37:36.830Z,101682.16
2023-02-02T11:40:38.033Z,101692.13
2023-02-02T11:43:19.676Z,101680.19
2023-02-02T11:45:54.267Z,101679.44
2023-02-02T11:48:24.549Z,101681.03
2023-02-02T11:50:54.551Z,101675.16
2023-02-02T11:53:33.242Z,101680.44
2023-02-02T11:56:08.813Z,101664.06
2023-02-02T11:58:52.820Z,101664.38
2023-02-02T12:01:22.742Z,101658.13
2023-02-02T12:03:50.404Z,101666.97
2023-02-02T12:06:19.193Z,101659.13
2023-02-02T12:08:46.850Z,101649.19
2023-02-02T12:11:42.081Z,101659.47
2023-02-02T12:14:31.981Z,101650.31
2023-02-02T12:17:22.491Z,101653.56
2023-02-02T12:20:04.086Z,101644.91
2023-02-02T12:22:42.608Z,101638.00
2023-02-02T12:25:15.241Z,101642.44
2023-02-02T12:27:44.788Z,101637.91
2023-02-02T12:30:28.510Z,101641.00
2023-02-02T12:33:13.399Z,101640.78
2023-02-02T12:35:53.674Z,101640.19
2023-02-02T12:38:41.850Z,101636.19
2023-02-02T12:41:25.113Z,101636.19
2023-02-02T12:44:02.936Z,101631.47
2023-02-02T12:46:42.280Z,101636.88
2023-02-02T12:49:28.038Z,101641.66
2023-02-02T12:52:16.959Z,101633.41
2023-02-02T12:55:16.098Z,101638.38
2023-02-02T12:57:48.679Z,101642.28
2023-02-02T13:00:18.372Z,101642.28
2023-02-02T13:03:00.521Z,101641.75
2023-02-02T13:05:48.867Z,101632.59
2023-02-02T13:08:38.607Z,101628.47
2023-02-02T13:11:32.979Z,101623.34
2023-02-02T13:14:14.321Z,101615.13
2023-02-02T13:16:48.567Z,101637.16
2023-02-02T13:19:32.110Z,101625.59
2023-02-02T13:22:02.006Z,101625.50
2023-02-02T13:24:32.013Z,101626.25
2023-02-02T13:27:02.195Z,101632.56
2023-02-02T13:29:55.901Z,101621.88
2023-02-02T13:32:32.171Z,101631.94
2023-02-02T13:35:01.572Z,101623.59
2023-02-02T13:37:54.056Z,101621.38
2023-02-02T13:40:38.783Z,101627.81
2023-02-02T13:43:27.449Z,101631.88
2023-02-02T13:46:26.217Z,101621.13
2023-02-02T13:49:16.219Z,101621.38
2023-02-02T13:51:51.423Z,101627.53
2023-02-02T13:54:24.308Z,101614.00
2023-02-02T13:57:04.873Z,101619.41
2023-02-02T13:59:59.595Z,101618.50
2023-02-02T14:02:35.487Z,101614.06
2023-02-02T14:05:05.907Z,101611.88
2023-02-02T14:07:43.791Z,101602.66
2023-02-02T14:10:43.178Z,101610.81
2023-02-02T14:13:32.625Z,101611.38
2023-02-02T14:16:00.478Z,101611.56
2023-02-02T14:18:48.813Z,101616.09
2023-02-02T14:21:33.660Z,101621.16
2023-02-02T14:24:04.909Z,101614.78
2023-02-02T14:26:40.798Z,101613.06
2023-02-02T14:29:32.061Z,101616.88
2023-02-02T14:32:00.245Z,101609.88
2023-02-02T14:34:41.933Z,101617.28
2023-02-02T14:37:24.168Z,101611.91
2023-02-02T14:40:12.680Z,101608.31
2023-02-02T14:43:19.495Z,101612.94
2023-02-02T14:45:49.004Z,101606.16
2023-02-02T14:48:24.048Z,101610.38
2023-02-02T14:50:57.024Z,101613.56
2023-02-02T14:53:40.654Z,101619.03
2023-02-02T14:56:13.865Z,101630.03
2023-02-02T14:58:53.013Z,101640.66
2023-02-02T15:01:25.899Z,101644.56
2023-02-02T15:03:56.719Z,101647.94
2023-02-02T15:06:40.553Z,101646.72
2023-02-02T15:09:29.355Z,101649.56
2023-02-02T15:12:01.276Z,101662.31
2023-02-02T15:14:52.972Z,101659.97
2023-02-02T15:17:40.831Z,101659.84
2023-02-02T15:20:26.744Z,101665.00
2023-02-02T15:23:30.634Z,101663.56
2023-02-02T15:26:19.656Z,101655.53
2023-02-02T15:28:59.558Z,101656.25
2023-02-02T15:31:41.213Z,101658.63
2023-02-02T15:34:21.819Z,101667.88
2023-02-02T15:36:52.544Z,101665.81
2023-02-02T15:39:33.737Z,101674.72
2023-02-02T15:42:23.231Z,101680.88
2023-02-02T15:44:50.115Z,101678.00
2023-02-02T15:47:31.457Z,101688.91
2023-02-02T15:49:59.930Z,101698.00
2023-02-02T15:52:29.803Z,101703.34
2023-02-02T15:54:58.869Z,101706.00
2023-02-02T15:57:35.643Z,101713.22
2023-02-02T16:00:22.679Z,101705.69
2023-02-02T16:02:54.219Z,101701.38
2023-02-02T16:05:25.793Z,101702.53
2023-02-02T16:08:05.042Z,101710.66
2023-02-02T16:10:33.677Z,101704.78
2023-02-02T16:13:00.539Z,101716.50
2023-02-02T16:15:30.894Z,101717.84
2023-02-02T16:18:00.124Z,101707.66
2023-02-02T16:20:29.652Z,101705.31
2023-02-02T16:23:04.963Z,101710.44
2023-02-02T16:25:36.875Z,101710.38
2023-02-02T16:28:04.547Z,101726.66
2023-02-02T16:30:36.769Z,101723.59
2023-02-02T16:33:36.392Z,101725.41
2023-02-02T16:36:26.355Z,101728.59
2023-02-02T16:38:55.218Z,101730.53
2023-02-02T16:41:28.017Z,101736.94
2023-02-02T16:43:55.619Z,101739.63
2023-02-02T16:46:40.848Z,101743.56
2023-02-02T16:49:15.896Z,101740.88
2023-02-02T16:51:43.885Z,101739.59
2023-02-02T16:54:14.024Z,101737.56
2023-02-02T16:56:46.382Z,101754.25
2023-02-02T16:59:26.093Z,101755.31
2023-02-02T17:01:57.294Z,101757.34
2023-02-02T17:04:29.357Z,101753.63
2023-02-02T17:07:05.550Z,101760.75
2023-02-02T17:09:35.902Z,101750.69
2023-02-02T17:12:35.373Z,101752.69
2023-02-02T17:15:28.930Z,101758.19
2023-02-02T17:17:56.103Z,101760.03
2023-02-02T17:20:23.272Z,101763.00
2023-02-02T17:22:54.778Z,101763.44
2023-02-02T17:25:28.949Z,101765.81
2023-02-02T17:27:57.706Z,101756.25
2023-02-02T17:30:24.892Z,101767.69
2023-02-02T17:32:51.751Z,101763.94
2023-02-02T17:35:24.224Z,101767.47
2023-02-02T17:37:53.932Z,101762.50
2023-02-02T17:40:23.611Z,101780.75
2023-02-02T17:42:52.838Z,101782.94
2023-02-02T17:45:24.086Z,101777.91
2023-02-02T17:47:51.800Z,101787.75
2023-02-02T17:50:19.066Z,101790.50
2023-02-02T17:52:46.252Z,101790.63
2023-02-02T17:55:25.808Z,101788.56
2023-02-02T17:57:54.310Z,101787.84
2023-02-02T18:00:24.787Z,101787.41
2023-02-02T18:03:00.482Z,101785.28
2023-02-02T18:05:27.858Z,101788.13
2023-02-02T18:07:55.052Z,101794.75
2023-02-02T18:10:24.914Z,101799.81
2023-02-02T18:12:52.078Z,101796.41
2023-02-02T18:15:19.323Z,101790.19
2023-02-02T18:17:46.483Z,101797.03
2023-02-02T18:20:16.838Z,101802.38
2023-02-02T18:22:44.407Z,101796.59
2023-02-02T18:25:11.529Z,101794.84
2023-02-02T18:27:38.968Z,101803.22
2023-02-02T18:30:07.291Z,101797.09
2023-02-02T18:32:38.700Z,101797.19
2023-02-02T18:35:06.397Z,101800.09
2023-02-02T18:37:33.839Z,101801.53
2023-02-02T18:40:01.051Z,101796.59
2023-02-02T18:42:33.224Z,101780.59
2023-02-02T18:45:00.631Z,101784.00
2023-02-02T18:47:28.003Z,101782.78
2023-02-02T18:49:55.079Z,101779.25
2023-02-02T18:52:22.377Z,101780.72
2023-02-02T18:54:50.046Z,101778.22
2023-02-02T18:57:17.694Z,101788.13
2023-02-02T18:59:44.571Z,101787.50
2023-02-02T19:02:15.916Z,101785.34
2023-02-02T19:05:02.953Z,101785.00
2023-02-02T19:07:48.642Z,101775.41
2023-02-02T19:10:17.669Z,101781.84
2023-02-02T19:13:20.398Z,101784.63
2023-02-02T19:15:49.566Z,101796.06
2023-02-02T19:18:21.254Z,101790.16
2023-02-02T19:20:48.988Z,101799.47
2023-02-02T19:23:25.073Z,101796.06
2023-02-02T19:25:56.807Z,101801.28
2023-02-02T19:28:26.529Z,101802.72
2023-02-02T19:30:55.368Z,101800.31
2023-02-02T19:33:28.148Z,101795.63
2023-02-02T19:35:55.382Z,101795.72
2023-02-02T19:38:26.677Z,101793.47
2023-02-02T19:40:53.395Z,101795.22
2023-02-02T19:43:32.325Z,101788.94
2023-02-02T19:46:00.238Z,101799.72
2023-02-02T19:48:35.423Z,101794.06
2023-02-02T19:51:37.431Z,101801.81
2023-02-02T19:54:13.181Z,101792.44
2023-02-02T19:56:41.052Z,101805.81
2023-02-02T19:59:18.082Z,101795.72
2023-02-02T20:01:50.673Z,101792.00
2023-02-02T20:04:20.547Z,101791.72
2023-02-02T20:06:58.742Z,101788.72
2023-02-02T20:09:33.602Z,101793.16
2023-02-02T20:12:00.782Z,101786.03
2023-02-02T20:14:30.167Z,101786.78
2023-02-02T20:17:07.481Z,101774.41
2023-02-02T20:19:42.994Z,101777.19
2023-02-02T20:22:30.591Z,101776.13
2023-02-02T20:25:00.833Z,101786.25
2023-02-02T20:27:29.938Z,101787.03
2023-02-02T20:30:01.708Z,101785.41
2023-02-02T20:32:39.561Z,101790.53
2023-02-02T20:35:39.978Z,101786.88
2023-02-02T20:38:38.884Z,101783.53
2023-02-02T20:41:06.531Z,101783.03
2023-02-02T20:43:35.873Z,101789.72
2023-02-02T20:46:03.519Z,101793.22
2023-02-02T20:48:30.449Z,101784.94
2023-02-02T20:50:58.811Z,101777.56
2023-02-02T20:53:43.938Z,101767.47
2023-02-02T20:56:10.822Z,101757.00
2023-02-02T20:58:37.629Z,101765.81
2023-02-02T21:01:05.774Z,101769.91
2023-02-02T21:03:33.001Z,101778.31
2023-02-02T21:06:00.307Z,101777.31
2023-02-02T21:08:27.113Z,101783.75
2023-02-02T21:10:53.936Z,101777.41
2023-02-02T21:13:20.725Z,101790.66
2023-02-02T21:15:48.397Z,101784.91
2023-02-02T21:18:15.229Z,101794.22
2023-02-02T21:20:42.056Z,101802.50
2023-02-02T21:23:10.352Z,101801.97
2023-02-02T21:25:37.379Z,101804.84
2023-02-02T21:28:04.638Z,101811.00
2023-02-02T21:30:32.221Z,101816.19
2023-02-02T21:32:59.526Z,101815.91
2023-02-02T21:35:27.019Z,101822.72
2023-02-02T21:37:57.839Z,101824.44
2023-02-02T21:40:29.919Z,101827.28
2023-02-02T21:42:59.951Z,101835.66
2023-02-02T21:45:34.763Z,101835.47
2023-02-02T21:48:19.857Z,101834.41
2023-02-02T21:50:47.086Z,101824.97
2023-02-02T21:53:17.112Z,101824.19
2023-02-02T21:55:45.934Z,101821.16
2023-02-02T21:58:27.751Z,101817.78
2023-02-02T22:00:59.526Z,101806.59
2023-02-02T22:03:38.432Z,101814.28
2023-02-02T22:06:07.723Z,101821.34
2023-02-02T22:08:37.223Z,101825.44
2023-02-02T22:11:04.113Z,101825.59
2023-02-02T22:13:34.834Z,101821.91
2023-02-02T22:16:02.156Z,101820.94
2023-02-02T22:18:29.449Z,101825.88
2023-02-02T22:20:56.885Z,101825.13
2023-02-02T22:23:26.856Z,101822.25
2023-02-02T22:25:56.261Z,101831.56
2023-02-02T22:28:30.180Z,101828.06
2023-02-02T22:30:58.783Z,101821.59
2023-02-02T22:33:26.863Z,101810.38
2023-02-02T22:35:54.518Z,101812.84
2023-02-02T22:38:24.170Z,101808.34
2023-02-02T22:40:52.168Z,101822.75
2023-02-02T22:43:20.651Z,101826.09
2023-02-02T22:45:48.155Z,101831.84
2023-02-02T22:48:15.589Z,101832.78
2023-02-02T22:50:42.512Z,101841.13
2023-02-02T22:53:09.315Z,101842.78
2023-02-02T22:55:36.157Z,101836.91
2023-02-02T22:58:02.961Z,101832.69
2023-02-02T23:00:33.158Z,101841.34
2023-02-02T23:03:00.132Z,101833.84
2023-02-02T23:05:28.119Z,101835.19
2023-02-02T23:07:55.675Z,101838.09
2023-02-02T23:10:25.786Z,101837.84
2023-02-02T23:12:56.036Z,101839.16
2023-02-02T23:15:22.915Z,101832.47
2023-02-02T23:17:50.117Z,101822.84
2023-02-02T23:20:18.265Z,101830.25
2023-02-02T23:22:45.400Z,101828.97
2023-02-02T23:25:13.651Z,101839.84
2023-02-02T23:27:41.031Z,101829.97
2023-02-02T23:30:12.289Z,101829.50
2023-02-02T23:32:39.320Z,101822.88
2023-02-02T23:35:10.084Z,101819.06
2023-02-02T23:37:37.511Z,101812.44
2023-02-02T23:40:05.049Z,101815.25
2023-02-02T23:42:32.331Z,101807.00
2023-02-02T23:44:59.184Z,101809.53
2023-02-02T23:47:26.418Z,101817.66
2023-02-02T23:49:53.511Z,101804.41
2023-02-02T23:52:20.872Z,101812.44
2023-02-02T23:54:47.969Z,101807.78
2023-02-02T23:57:15.462Z,101801.41
2023-02-02T23:59:42.547Z,101793.47
